Time;durP1;ratioP1;P1;durP2;ratioP2;P2;SDS_P1;SDS_P2;PMS_P1;PMS_P2;Temp;Humidity;BMP_temperature;BMP_pressure;BME280_temperature;BME280_humidity;BME280_pressure;Samples;Min_cycle;Max_cycle;Signal;HPM_P1;HPM_P2
2023/06/11 00:00:26;;;;;;;8.43;5.90;;;;;;;;;;5002986;28;20251;-81
2023/06/11 00:02:54;;;;;;;6.43;5.82;;;;;;;;;;4998059;28;20212;-80
2023/06/11 00:05:21;;;;;;;8.25;6.43;;;;;;;;;;5002650;28;20270;-80
2023/06/11 00:07:49;;;;;;;6.43;5.82;;;;;;;;;;5012662;28;20699;-80
2023/06/11 00:10:16;;;;;;;7.40;5.93;;;;;;;;;;5011838;28;20320;-79
2023/06/11 00:12:45;;;;;;;8.07;6.18;;;;;;;;;;5011539;28;20625;-79
2023/06/11 00:15:13;;;;;;;6.85;6.25;;;;;;;;;;5012421;28;20706;-79
2023/06/11 00:17:41;;;;;;;6.30;5.70;;;;;;;;;;5000381;28;20212;-79
2023/06/11 00:20:11;;;;;;;6.82;6.13;;;;;;;;;;5002042;28;20548;-80
2023/06/11 00:22:38;;;;;;;9.32;5.43;;;;;;;;;;4997018;28;20659;-78
2023/06/11 00:25:05;;;;;;;7.97;5.60;;;;;;;;;;4997151;28;20240;-79
2023/06/11 00:27:32;;;;;;;8.63;6.20;;;;;;;;;;5013040;28;20219;-79
2023/06/11 00:30:03;;;;;;;7.00;6.30;;;;;;;;;;5011851;28;20223;-79
2023/06/11 00:32:30;;;;;;;6.40;5.80;;;;;;;;;;5009847;28;20208;-79
2023/06/11 00:34:57;;;;;;;6.50;5.90;;;;;;;;;;5002159;28;20243;-79
2023/06/11 00:37:25;;;;;;;8.70;5.40;;;;;;;;;;5009519;28;20215;-79
2023/06/11 00:39:52;;;;;;;7.55;6.05;;;;;;;;;;5013645;28;20314;-79
2023/06/11 00:42:20;;;;;;;7.63;6.20;;;;;;;;;;4995198;28;20216;-79
2023/06/11 00:44:47;;;;;;;7.05;5.75;;;;;;;;;;5009329;28;20773;-79
2023/06/11 00:47:16;;;;;;;6.95;5.97;;;;;;;;;;5004240;28;20236;-80
2023/06/11 00:49:44;;;;;;;5.75;5.25;;;;;;;;;;5007736;28;20231;-79
2023/06/11 00:52:13;;;;;;;6.30;5.72;;;;;;;;;;5013632;28;20258;-79
2023/06/11 00:54:41;;;;;;;6.95;6.15;;;;;;;;;;5013215;28;20238;-79
2023/06/11 00:57:08;;;;;;;6.40;5.80;;;;;;;;;;5011176;28;20220;-79
2023/06/11 00:59:37;;;;;;;6.50;5.90;;;;;;;;;;5010025;28;20250;-79
2023/06/11 01:02:08;;;;;;;7.93;6.38;;;;;;;;;;5012859;28;20211;-79
2023/06/11 01:04:39;;;;;;;6.97;6.28;;;;;;;;;;5008989;28;20598;-79
2023/06/11 01:07:08;;;;;;;6.72;5.90;;;;;;;;;;5003675;28;20243;-79
2023/06/11 01:09:35;;;;;;;6.80;6.13;;;;;;;;;;5013362;28;20242;-79
2023/06/11 01:12:03;;;;;;;6.40;5.80;;;;;;;;;;5013713;28;20203;-79
2023/06/11 01:14:32;;;;;;;7.50;6.35;;;;;;;;;;5012746;28;20239;-79
2023/06/11 01:17:04;;;;;;;6.40;5.80;;;;;;;;;;5003169;28;20242;-79
2023/06/11 01:19:43;;;;;;;7.93;6.20;;;;;;;;;;5005173;28;20354;-79
2023/06/11 01:22:13;;;;;;;7.40;6.10;;;;;;;;;;5004128;28;20307;-79
2023/06/11 01:24:42;;;;;;;7.22;6.07;;;;;;;;;;4995907;28;20310;-79
2023/06/11 01:27:12;;;;;;;7.93;6.30;;;;;;;;;;5012870;28;20207;-79
2023/06/11 01:29:45;;;;;;;6.95;6.25;;;;;;;;;;5012256;28;20231;-79
2023/06/11 01:32:12;;;;;;;7.32;6.07;;;;;;;;;;5004103;28;20215;-79
2023/06/11 01:34:41;;;;;;;7.88;6.38;;;;;;;;;;5008339;28;20242;-79
2023/06/11 01:37:11;;;;;;;6.35;5.75;;;;;;;;;;5012494;28;20227;-79
2023/06/11 01:39:38;;;;;;;6.57;5.95;;;;;;;;;;5007293;28;20302;-79
2023/06/11 01:42:06;;;;;;;7.57;6.10;;;;;;;;;;5008499;28;20203;-79
2023/06/11 01:44:33;;;;;;;7.35;6.20;;;;;;;;;;5002054;28;20306;-79
2023/06/11 01:47:01;;;;;;;6.00;5.47;;;;;;;;;;5009501;28;20214;-79
2023/06/11 01:49:28;;;;;;;6.60;5.63;;;;;;;;;;5009102;28;20247;-79
2023/06/11 01:51:55;;;;;;;7.43;5.57;;;;;;;;;;5004181;28;20199;-79
2023/06/11 01:54:22;;;;;;;6.43;5.85;;;;;;;;;;4996936;28;20317;-79
2023/06/11 01:56:49;;;;;;;5.80;5.30;;;;;;;;;;5000657;28;20234;-78
2023/06/11 01:59:17;;;;;;;5.65;5.18;;;;;;;;;;5010832;28;20235;-78
2023/06/11 02:01:44;;;;;;;6.50;5.85;;;;;;;;;;4998364;28;20619;-78
2023/06/11 02:04:12;;;;;;;6.30;5.70;;;;;;;;;;5003264;28;20243;-78
2023/06/11 02:06:40;;;;;;;6.25;5.65;;;;;;;;;;5011730;28;20215;-78
2023/06/11 02:09:07;;;;;;;7.00;5.57;;;;;;;;;;5009856;28;20577;-78
2023/06/11 02:11:34;;;;;;;6.07;5.53;;;;;;;;;;5004930;28;20235;-78
2023/06/11 02:14:01;;;;;;;6.40;5.82;;;;;;;;;;4996406;28;20228;-78
2023/06/11 02:16:28;;;;;;;7.65;6.05;;;;;;;;;;4998866;28;20295;-78
2023/06/11 02:18:55;;;;;;;6.47;5.82;;;;;;;;;;4994778;28;20219;-78
2023/06/11 02:21:24;;;;;;;6.10;5.50;;;;;;;;;;5000553;28;20693;-78
2023/06/11 02:23:51;;;;;;;6.70;5.85;;;;;;;;;;5005626;28;20208;-78
2023/06/11 02:26:18;;;;;;;6.45;5.85;;;;;;;;;;5000808;28;20199;-78
2023/06/11 02:28:45;;;;;;;6.50;5.93;;;;;;;;;;5002430;28;20208;-78
2023/06/11 02:31:12;;;;;;;7.53;5.65;;;;;;;;;;5010260;28;20242;-78
2023/06/11 02:33:39;;;;;;;6.28;5.57;;;;;;;;;;5005940;28;20215;-78
2023/06/11 02:36:06;;;;;;;6.18;5.65;;;;;;;;;;5011632;28;20243;-78
2023/06/11 02:38:34;;;;;;;6.13;5.53;;;;;;;;;;5011674;28;20226;-78
2023/06/11 02:41:01;;;;;;;7.22;6.53;;;;;;;;;;4996526;28;20722;-78
2023/06/11 02:43:28;;;;;;;6.18;5.57;;;;;;;;;;4998520;28;20208;-78
2023/06/11 02:45:55;;;;;;;7.35;5.78;;;;;;;;;;5001299;28;20706;-78
2023/06/11 02:48:22;;;;;;;6.00;5.40;;;;;;;;;;5001665;28;20234;-78
2023/06/11 02:50:49;;;;;;;6.97;6.28;;;;;;;;;;4999428;28;20254;-78
2023/06/11 02:53:16;;;;;;;6.45;5.05;;;;;;;;;;5000569;28;20212;-79
2023/06/11 02:55:45;;;;;;;6.35;5.75;;;;;;;;;;5002341;28;20238;-79
2023/06/11 02:58:12;;;;;;;6.30;5.78;;;;;;;;;;5011475;28;20628;-79
2023/06/11 03:00:39;;;;;;;5.53;5.03;;;;;;;;;;5011557;28;20231;-78
2023/06/11 03:03:06;;;;;;;5.90;5.40;;;;;;;;;;5011569;28;20246;-78
2023/06/11 03:05:33;;;;;;;6.10;5.60;;;;;;;;;;4998976;28;20240;-78
2023/06/11 03:08:00;;;;;;;6.35;5.50;;;;;;;;;;5006985;28;20242;-78
2023/06/11 03:10:28;;;;;;;6.30;5.45;;;;;;;;;;5011110;28;20231;-78
2023/06/11 03:12:56;;;;;;;6.03;5.20;;;;;;;;;;5011749;28;20210;-78
2023/06/11 03:15:23;;;;;;;5.55;5.05;;;;;;;;;;5011091;28;20286;-79
2023/06/11 03:17:50;;;;;;;5.85;5.30;;;;;;;;;;4992166;28;20208;-79
2023/06/11 03:20:17;;;;;;;6.22;5.63;;;;;;;;;;5008659;28;20227;-79
2023/06/11 03:22:44;;;;;;;6.38;5.78;;;;;;;;;;5011308;28;20583;-79
2023/06/11 03:25:11;;;;;;;5.88;5.28;;;;;;;;;;5011147;28;20231;-79
2023/06/11 03:27:38;;;;;;;7.85;5.75;;;;;;;;;;5011633;28;20234;-79
2023/06/11 03:30:08;;;;;;;8.68;5.65;;;;;;;;;;5002754;28;20705;-79
2023/06/11 03:32:35;;;;;;;5.90;5.38;;;;;;;;;;5011329;28;20258;-79
2023/06/11 03:35:02;;;;;;;5.80;5.20;;;;;;;;;;5010822;28;20319;-78
2023/06/11 03:37:29;;;;;;;6.40;5.25;;;;;;;;;;5011774;28;20262;-78
2023/06/11 03:39:56;;;;;;;6.30;5.55;;;;;;;;;;5012406;28;20235;-78
2023/06/11 03:42:23;;;;;;;5.95;5.35;;;;;;;;;;5015268;28;20199;-78
2023/06/11 03:44:50;;;;;;;6.18;5.68;;;;;;;;;;5011880;28;20235;-77
2023/06/11 03:47:19;;;;;;;6.05;5.18;;;;;;;;;;5011843;28;20206;-78
2023/06/11 03:49:46;;;;;;;6.00;5.40;;;;;;;;;;5005296;28;20697;-78
2023/06/11 03:52:13;;;;;;;5.68;5.18;;;;;;;;;;5005687;28;20732;-78
2023/06/11 03:54:40;;;;;;;6.68;5.72;;;;;;;;;;5005895;28;20246;-78
2023/06/11 03:57:07;;;;;;;6.45;5.85;;;;;;;;;;5014882;28;20208;-78
2023/06/11 03:59:34;;;;;;;6.40;5.80;;;;;;;;;;5003898;28;20235;-79
2023/06/11 04:02:01;;;;;;;6.30;5.80;;;;;;;;;;5012388;28;20210;-78
2023/06/11 04:04:32;;;;;;;5.95;5.35;;;;;;;;;;5011937;28;20235;-78
2023/06/11 04:06:59;;;;;;;5.78;5.18;;;;;;;;;;5009650;28;20226;-78
2023/06/11 04:09:26;;;;;;;6.13;5.53;;;;;;;;;;5014374;28;20648;-78
2023/06/11 04:11:53;;;;;;;6.40;5.80;;;;;;;;;;5014124;28;20697;-78
2023/06/11 04:14:20;;;;;;;8.23;5.75;;;;;;;;;;5003719;28;20247;-78
2023/06/11 04:16:47;;;;;;;7.72;5.90;;;;;;;;;;5011913;28;20627;-78
2023/06/11 04:19:14;;;;;;;7.32;5.72;;;;;;;;;;5006238;28;20657;-79
2023/06/11 04:21:42;;;;;;;7.45;5.70;;;;;;;;;;5010973;28;20203;-78
2023/06/11 04:24:09;;;;;;;9.40;6.10;;;;;;;;;;4997463;28;20240;-78
2023/06/11 04:26:37;;;;;;;9.38;6.45;;;;;;;;;;5001979;28;20204;-78
2023/06/11 04:29:04;;;;;;;16.15;6.60;;;;;;;;;;5014461;28;20294;-79
2023/06/11 04:31:31;;;;;;;12.07;6.35;;;;;;;;;;5004399;28;20227;-79
2023/06/11 04:34:02;;;;;;;9.70;6.43;;;;;;;;;;5013456;28;20214;-79
2023/06/11 04:36:29;;;;;;;6.57;5.88;;;;;;;;;;5011268;28;20298;-79
2023/06/11 04:39:01;;;;;;;8.23;5.90;;;;;;;;;;5008140;28;20206;-79
2023/06/11 04:41:29;;;;;;;6.90;6.30;;;;;;;;;;5004288;28;20215;-79
2023/06/11 04:43:56;;;;;;;7.55;5.75;;;;;;;;;;4994193;28;20204;-79
2023/06/11 04:46:23;;;;;;;7.15;6.30;;;;;;;;;;5011981;28;20215;-79
2023/06/11 04:48:51;;;;;;;7.40;5.80;;;;;;;;;;5007794;28;20216;-79
2023/06/11 04:51:20;;;;;;;7.90;5.90;;;;;;;;;;5006424;28;20224;-79
2023/06/11 04:53:47;;;;;;;6.65;6.05;;;;;;;;;;4996278;28;20223;-79
2023/06/11 04:56:16;;;;;;;7.40;6.45;;;;;;;;;;5013676;28;20218;-79
2023/06/11 04:58:43;;;;;;;6.75;6.05;;;;;;;;;;5006045;28;20276;-79
2023/06/11 05:01:12;;;;;;;8.55;6.38;;;;;;;;;;5006133;28;20223;-79
2023/06/11 05:03:39;;;;;;;6.43;5.82;;;;;;;;;;5009897;28;20235;-79
2023/06/11 05:06:08;;;;;;;6.15;5.63;;;;;;;;;;5013299;28;20227;-79
2023/06/11 05:08:35;;;;;;;6.38;5.78;;;;;;;;;;5013691;28;20231;-79
2023/06/11 05:11:02;;;;;;;6.78;6.07;;;;;;;;;;5005204;28;20227;-79
2023/06/11 05:13:30;;;;;;;7.93;5.90;;;;;;;;;;4997212;28;20224;-79
2023/06/11 05:15:58;;;;;;;7.20;5.70;;;;;;;;;;4999633;28;20596;-79
2023/06/11 05:18:26;;;;;;;6.28;5.65;;;;;;;;;;5003383;28;20327;-79
2023/06/11 05:20:54;;;;;;;6.93;6.28;;;;;;;;;;5013077;28;20282;-79
2023/06/11 05:23:28;;;;;;;7.40;5.82;;;;;;;;;;5013329;28;20214;-79
2023/06/11 05:26:01;;;;;;;6.55;5.53;;;;;;;;;;5012810;28;20242;-79
2023/06/11 05:28:28;;;;;;;6.47;5.85;;;;;;;;;;4997167;28;20215;-79
2023/06/11 05:30:56;;;;;;;6.60;6.00;;;;;;;;;;4999741;28;20250;-78
2023/06/11 05:33:26;;;;;;;7.15;5.70;;;;;;;;;;5008925;28;20207;-79
2023/06/11 05:35:53;;;;;;;6.05;5.53;;;;;;;;;;5006148;28;20251;-79
2023/06/11 05:38:20;;;;;;;5.63;5.13;;;;;;;;;;5003549;28;20257;-79
2023/06/11 05:40:47;;;;;;;6.13;5.53;;;;;;;;;;5012593;28;20227;-79
2023/06/11 05:43:14;;;;;;;6.15;5.32;;;;;;;;;;5005300;28;20212;-79
2023/06/11 05:45:48;;;;;;;6.63;5.30;;;;;;;;;;5011692;28;20235;-79
2023/06/11 05:48:16;;;;;;;7.30;5.60;;;;;;;;;;5010994;28;20261;-79
2023/06/11 05:50:44;;;;;;;6.55;5.32;;;;;;;;;;4996400;28;20576;-79
2023/06/11 05:53:11;;;;;;;5.47;5.00;;;;;;;;;;5002935;28;20231;-79
2023/06/11 05:55:38;;;;;;;6.00;5.40;;;;;;;;;;5011446;28;20239;-78
2023/06/11 05:58:05;;;;;;;5.20;4.80;;;;;;;;;;5011717;28;20207;-78
2023/06/11 06:00:32;;;;;;;5.30;4.80;;;;;;;;;;5011788;28;20262;-78
2023/06/11 06:03:01;;;;;;;5.32;4.82;;;;;;;;;;5013142;28;20206;-79
2023/06/11 06:05:29;;;;;;;6.05;5.20;;;;;;;;;;5007261;28;20230;-79
2023/06/11 06:07:57;;;;;;;5.47;4.97;;;;;;;;;;5005655;28;20203;-80
2023/06/11 06:10:24;;;;;;;5.50;5.00;;;;;;;;;;5001608;28;20635;-80
2023/06/11 06:12:51;;;;;;;5.10;4.70;;;;;;;;;;5004882;28;20255;-81
2023/06/11 06:15:18;;;;;;;6.07;5.18;;;;;;;;;;5005712;28;20661;-80
2023/06/11 06:17:45;;;;;;;5.57;4.93;;;;;;;;;;4997926;28;20589;-81
2023/06/11 06:20:13;;;;;;;5.68;5.10;;;;;;;;;;5004927;28;20227;-81
2023/06/11 06:22:41;;;;;;;6.35;4.63;;;;;;;;;;4999065;28;20206;-80
2023/06/11 06:25:08;;;;;;;5.05;4.65;;;;;;;;;;5006085;28;20231;-81
2023/06/11 06:27:36;;;;;;;15.40;5.82;;;;;;;;;;5004596;28;20223;-81
2023/06/11 06:30:05;;;;;;;5.35;4.85;;;;;;;;;;5006100;28;20243;-81
2023/06/11 06:32:32;;;;;;;4.90;4.50;;;;;;;;;;5006919;28;20227;-81
2023/06/11 06:34:59;;;;;;;6.65;4.65;;;;;;;;;;5000381;28;20236;-80
2023/06/11 06:37:27;;;;;;;5.85;4.88;;;;;;;;;;5002865;28;20204;-81
2023/06/11 06:39:55;;;;;;;6.57;5.03;;;;;;;;;;5006244;28;20222;-81
2023/06/11 06:42:23;;;;;;;4.88;4.25;;;;;;;;;;5005756;28;20208;-81
2023/06/11 06:44:50;;;;;;;5.90;4.70;;;;;;;;;;5005991;28;20239;-81
2023/06/11 06:47:17;;;;;;;6.63;4.78;;;;;;;;;;5001745;28;20596;-81
2023/06/11 06:49:44;;;;;;;4.63;3.97;;;;;;;;;;5003174;28;20582;-79
2023/06/11 06:52:11;;;;;;;6.32;4.32;;;;;;;;;;5001146;28;20223;-80
2023/06/11 06:54:38;;;;;;;5.68;4.47;;;;;;;;;;5003119;28;20227;-80
2023/06/11 06:57:09;;;;;;;7.40;4.75;;;;;;;;;;5004427;28;20211;-80
2023/06/11 06:59:36;;;;;;;5.20;4.80;;;;;;;;;;5001299;28;20363;-80
2023/06/11 07:02:03;;;;;;;5.38;4.88;;;;;;;;;;5003812;28;20207;-80
2023/06/11 07:04:30;;;;;;;6.45;4.30;;;;;;;;;;5004629;28;20606;-81
2023/06/11 07:06:57;;;;;;;4.35;4.05;;;;;;;;;;5005786;28;20579;-80
2023/06/11 07:09:25;;;;;;;6.07;4.50;;;;;;;;;;5005443;28;20230;-81
2023/06/11 07:11:52;;;;;;;6.00;4.80;;;;;;;;;;5003181;28;20238;-79
2023/06/11 07:14:21;;;;;;;5.00;4.50;;;;;;;;;;5006745;28;20242;-82
2023/06/11 07:16:48;;;;;;;4.60;4.20;;;;;;;;;;5004558;28;20208;-81
2023/06/11 07:19:15;;;;;;;5.88;4.63;;;;;;;;;;5005096;28;20231;-81
2023/06/11 07:21:42;;;;;;;6.20;4.50;;;;;;;;;;5003547;28;20203;-80
2023/06/11 07:24:09;;;;;;;6.50;4.38;;;;;;;;;;5002518;28;20236;-80
2023/06/11 07:26:36;;;;;;;4.82;4.38;;;;;;;;;;5004543;28;20203;-80
2023/06/11 07:29:03;;;;;;;4.85;4.20;;;;;;;;;;5002388;28;20573;-80
2023/06/11 07:31:31;;;;;;;5.88;4.35;;;;;;;;;;5005577;28;20206;-80
2023/06/11 07:33:59;;;;;;;4.80;4.20;;;;;;;;;;5004628;28;20250;-79
2023/06/11 07:36:26;;;;;;;5.30;4.78;;;;;;;;;;5006814;28;20207;-80
2023/06/11 07:38:53;;;;;;;4.38;4.03;;;;;;;;;;5005496;28;20200;-80
2023/06/11 07:41:20;;;;;;;5.25;4.47;;;;;;;;;;5008197;28;20219;-80
2023/06/11 07:43:47;;;;;;;5.20;4.35;;;;;;;;;;5007758;28;20214;-77
2023/06/11 07:46:15;;;;;;;4.75;4.10;;;;;;;;;;5008737;28;20214;-79
2023/06/11 07:48:44;;;;;;;6.00;4.40;;;;;;;;;;5006851;28;20696;-79
2023/06/11 07:51:14;;;;;;;4.80;4.40;;;;;;;;;;4998647;28;20238;-80
2023/06/11 07:53:44;;;;;;;4.25;3.92;;;;;;;;;;5006681;28;20235;-79
2023/06/11 07:56:11;;;;;;;4.38;3.97;;;;;;;;;;5005564;28;20227;-79
2023/06/11 07:58:38;;;;;;;4.60;4.20;;;;;;;;;;5002302;28;20262;-79
2023/06/11 08:01:05;;;;;;;4.25;3.88;;;;;;;;;;5000148;28;20231;-80
2023/06/11 08:03:33;;;;;;;4.30;3.90;;;;;;;;;;5001602;28;20215;-81
2023/06/11 08:06:01;;;;;;;4.38;3.97;;;;;;;;;;4999304;28;20255;-81
2023/06/11 08:08:28;;;;;;;5.82;4.05;;;;;;;;;;5005095;28;20666;-81
2023/06/11 08:10:56;;;;;;;4.85;4.00;;;;;;;;;;5006571;28;20227;-81
2023/06/11 08:13:23;;;;;;;4.65;4.10;;;;;;;;;;5006158;28;20232;-81
2023/06/11 08:15:50;;;;;;;6.63;4.45;;;;;;;;;;5001734;28;20689;-80
2023/06/11 08:18:17;;;;;;;4.47;3.72;;;;;;;;;;5002209;28;20240;-81
2023/06/11 08:20:44;;;;;;;6.85;4.65;;;;;;;;;;5004718;28;20239;-80
2023/06/11 08:23:13;;;;;;;5.65;4.20;;;;;;;;;;5009066;28;20207;-80
2023/06/11 08:25:40;;;;;;;4.57;4.18;;;;;;;;;;5009557;28;20227;-80
2023/06/11 08:28:07;;;;;;;5.18;4.07;;;;;;;;;;5007368;28;20210;-81
2023/06/11 08:30:34;;;;;;;4.60;4.20;;;;;;;;;;5012220;28;20281;-81
2023/06/11 08:33:02;;;;;;;5.50;4.50;;;;;;;;;;5014182;28;20222;-81
2023/06/11 08:35:29;;;;;;;5.60;4.30;;;;;;;;;;5013352;28;20243;-82
2023/06/11 08:37:56;;;;;;;4.40;3.90;;;;;;;;;;5004607;28;20222;-81
2023/06/11 08:40:24;;;;;;;4.25;3.85;;;;;;;;;;5001831;28;20231;-82
2023/06/11 08:42:51;;;;;;;6.07;3.97;;;;;;;;;;5014121;28;20273;-82
2023/06/11 08:45:19;;;;;;;4.75;4.28;;;;;;;;;;5014072;28;20227;-82
2023/06/11 08:47:50;;;;;;;4.65;4.10;;;;;;;;;;5004131;28;20211;-82
2023/06/11 08:50:20;;;;;;;4.95;3.83;;;;;;;;;;4994571;28;20765;-82
2023/06/11 08:52:48;;;;;;;4.82;4.40;;;;;;;;;;4994432;28;20263;-82
2023/06/11 08:55:15;;;;;;;5.55;4.57;;;;;;;;;;4999324;28;20231;-81
2023/06/11 08:57:44;;;;;;;4.25;3.90;;;;;;;;;;5003378;28;20216;-81
2023/06/11 09:00:12;;;;;;;4.70;4.22;;;;;;;;;;4999695;28;20408;-81
2023/06/11 09:02:39;;;;;;;7.22;4.55;;;;;;;;;;5005453;28;20203;-82
2023/06/11 09:05:07;;;;;;;7.22;4.25;;;;;;;;;;5010696;28;20255;-82
2023/06/11 09:07:34;;;;;;;4.05;3.63;;;;;;;;;;5008028;28;20215;-83
2023/06/11 09:10:05;;;;;;;4.80;3.90;;;;;;;;;;5007331;28;20290;-82
2023/06/11 09:12:32;;;;;;;4.20;3.80;;;;;;;;;;5009912;28;20224;-83
2023/06/11 09:15:00;;;;;;;4.50;4.10;;;;;;;;;;5005098;28;20283;-83
2023/06/11 09:17:34;;;;;;;5.57;3.80;;;;;;;;;;5010836;28;20208;-83
2023/06/11 09:20:04;;;;;;;4.03;3.70;;;;;;;;;;5004726;28;20254;-83
2023/06/11 09:22:31;;;;;;;4.35;3.80;;;;;;;;;;5005132;28;20646;-82
2023/06/11 09:24:58;;;;;;;4.68;3.90;;;;;;;;;;5004218;28;20235;-82
2023/06/11 09:27:25;;;;;;;4.20;3.80;;;;;;;;;;5003401;28;20583;-81
2023/06/11 09:29:53;;;;;;;4.00;3.65;;;;;;;;;;5004437;28;20238;-83
2023/06/11 09:32:22;;;;;;;4.00;3.65;;;;;;;;;;5006643;28;20290;-81
2023/06/11 09:34:49;;;;;;;5.53;3.47;;;;;;;;;;5002176;28;20592;-83
2023/06/11 09:37:17;;;;;;;3.75;3.35;;;;;;;;;;5005100;28;20203;-81
2023/06/11 09:39:45;;;;;;;4.75;3.88;;;;;;;;;;5007050;28;20720;-82
2023/06/11 09:42:13;;;;;;;7.45;4.15;;;;;;;;;;4999820;28;20208;-84
2023/06/11 09:44:46;;;;;;;3.80;3.50;;;;;;;;;;4999918;28;20239;-84
2023/06/11 09:47:13;;;;;;;5.22;3.90;;;;;;;;;;5010659;28;20303;-82
2023/06/11 09:49:42;;;;;;;3.83;3.53;;;;;;;;;;5010052;28;20238;-83
2023/06/11 09:52:09;;;;;;;6.55;3.58;;;;;;;;;;4993687;28;20310;-84
2023/06/11 09:54:37;;;;;;;4.35;3.80;;;;;;;;;;5009507;28;20589;-83
2023/06/11 09:57:05;;;;;;;7.57;3.67;;;;;;;;;;5008650;28;20207;-83
2023/06/11 09:59:33;;;;;;;4.38;3.63;;;;;;;;;;5004492;28;20247;-82
2023/06/11 10:02:00;;;;;;;4.57;3.80;;;;;;;;;;5004960;28;20214;-84
2023/06/11 10:04:27;;;;;;;3.83;3.53;;;;;;;;;;4996510;28;20243;-84
2023/06/11 10:06:56;;;;;;;4.05;3.53;;;;;;;;;;5005416;28;20204;-83
2023/06/11 10:09:23;;;;;;;4.05;3.63;;;;;;;;;;5000268;28;20622;-83
2023/06/11 10:11:50;;;;;;;4.43;3.50;;;;;;;;;;5011656;28;20306;-83
2023/06/11 10:14:20;;;;;;;4.35;3.95;;;;;;;;;;4997517;28;20247;-84
2023/06/11 10:16:50;;;;;;;5.10;3.90;;;;;;;;;;5008488;28;20207;-83
2023/06/11 10:19:17;;;;;;;7.38;3.92;;;;;;;;;;5012124;28;20230;-82
2023/06/11 10:21:49;;;;;;;3.75;3.40;;;;;;;;;;5002572;28;20210;-82
2023/06/11 10:24:27;;;;;;;4.10;3.70;;;;;;;;;;4999955;28;20706;-82
2023/06/11 10:27:08;;;;;;;6.15;3.53;;;;;;;;;;5006955;28;20207;-82
2023/06/11 10:29:38;;;;;;;4.00;3.63;;;;;;;;;;4992196;28;20618;-82
2023/06/11 10:32:15;;;;;;;4.25;3.55;;;;;;;;;;5008354;28;20208;-82
2023/06/11 10:34:42;;;;;;;3.63;3.33;;;;;;;;;;4999993;28;20263;-83
2023/06/11 10:37:10;;;;;;;6.10;3.90;;;;;;;;;;4997698;28;20208;-82
2023/06/11 10:39:50;;;;;;;5.55;3.42;;;;;;;;;;5003658;28;20242;-82
2023/06/11 10:42:23;;;;;;;4.43;3.53;;;;;;;;;;4998263;28;20204;-82
2023/06/11 10:44:50;;;;;;;5.68;4.00;;;;;;;;;;5010416;28;20238;-83
2023/06/11 10:47:17;;;;;;;4.40;3.53;;;;;;;;;;4998091;28;20263;-82
2023/06/11 10:49:44;;;;;;;4.43;3.40;;;;;;;;;;4992276;28;20236;-83
2023/06/11 10:52:11;;;;;;;4.53;3.60;;;;;;;;;;5005509;28;20199;-83
2023/06/11 10:54:41;;;;;;;4.45;4.05;;;;;;;;;;5002960;28;20243;-83
2023/06/11 10:57:10;;;;;;;4.10;3.70;;;;;;;;;;5003719;28;20253;-82
2023/06/11 10:59:38;;;;;;;3.85;3.47;;;;;;;;;;5011543;28;20652;-82
2023/06/11 11:02:05;;;;;;;5.75;3.67;;;;;;;;;;5003961;28;20211;-82
2023/06/11 11:04:32;;;;;;;5.00;3.80;;;;;;;;;;5003739;28;20235;-82
2023/06/11 11:07:07;;;;;;;4.20;3.80;;;;;;;;;;5010817;28;20728;-81
2023/06/11 11:09:35;;;;;;;4.25;3.85;;;;;;;;;;5003713;28;20238;-83
2023/06/11 11:12:07;;;;;;;8.32;4.30;;;;;;;;;;4995336;28;20615;-80
2023/06/11 11:14:35;;;;;;;4.45;4.03;;;;;;;;;;5003406;28;20732;-81
2023/06/11 11:17:02;;;;;;;6.55;4.00;;;;;;;;;;5006457;28;20226;-80
2023/06/11 11:19:30;;;;;;;4.95;3.40;;;;;;;;;;4999789;28;20649;-80
2023/06/11 11:21:57;;;;;;;5.47;3.72;;;;;;;;;;5010580;28;20669;-81
2023/06/11 11:24:24;;;;;;;3.65;3.35;;;;;;;;;;5002736;28;20239;-81
2023/06/11 11:26:51;;;;;;;4.20;3.90;;;;;;;;;;4998949;28;20285;-80
2023/06/11 11:29:19;;;;;;;3.97;3.65;;;;;;;;;;5010673;28;20234;-80
2023/06/11 11:31:47;;;;;;;5.05;3.85;;;;;;;;;;5000897;28;20581;-80
2023/06/11 11:34:14;;;;;;;3.78;3.47;;;;;;;;;;4997886;28;20243;-80
2023/06/11 11:36:42;;;;;;;9.02;4.68;;;;;;;;;;5008534;28;20218;-80
2023/06/11 11:39:13;;;;;;;4.50;3.75;;;;;;;;;;5011168;28;20600;-80
2023/06/11 11:41:46;;;;;;;5.47;4.35;;;;;;;;;;5003307;28;20207;-81
2023/06/11 11:44:15;;;;;;;4.10;3.60;;;;;;;;;;5011051;28;20258;-81
2023/06/11 11:46:44;;;;;;;4.38;3.63;;;;;;;;;;5011259;28;20223;-81
2023/06/11 11:49:11;;;;;;;4.28;3.70;;;;;;;;;;5010987;28;20231;-81
2023/06/11 11:51:42;;;;;;;3.47;3.15;;;;;;;;;;5003316;28;20211;-81
2023/06/11 11:54:09;;;;;;;6.30;3.40;;;;;;;;;;5002910;28;20261;-82
2023/06/11 11:56:36;;;;;;;6.10;3.50;;;;;;;;;;5011439;28;20703;-82
2023/06/11 11:59:03;;;;;;;4.45;3.75;;;;;;;;;;5008609;28;20214;-82
2023/06/11 12:01:36;;;;;;;3.75;3.35;;;;;;;;;;5015486;28;20210;-82
2023/06/11 12:04:06;;;;;;;3.60;3.30;;;;;;;;;;5006941;28;20193;-82
2023/06/11 12:06:33;;;;;;;3.70;3.28;;;;;;;;;;5008307;28;20203;-82
2023/06/11 12:09:00;;;;;;;3.70;3.40;;;;;;;;;;5010180;28;20214;-81
2023/06/11 12:11:27;;;;;;;4.82;3.90;;;;;;;;;;5008669;28;20261;-81
2023/06/11 12:13:55;;;;;;;3.60;3.30;;;;;;;;;;5009245;28;20265;-82
2023/06/11 12:16:23;;;;;;;3.90;3.60;;;;;;;;;;5008419;28;20207;-82
2023/06/11 12:18:51;;;;;;;3.50;3.20;;;;;;;;;;5011022;28;20226;-82
2023/06/11 12:21:19;;;;;;;9.10;3.33;;;;;;;;;;5010783;28;20667;-82
2023/06/11 12:23:47;;;;;;;3.90;3.60;;;;;;;;;;5010619;28;20242;-82
2023/06/11 12:26:14;;;;;;;3.85;3.45;;;;;;;;;;4995394;28;20217;-82
2023/06/11 12:28:41;;;;;;;3.33;3.10;;;;;;;;;;5010595;28;20579;-82
2023/06/11 12:31:09;;;;;;;3.47;3.17;;;;;;;;;;5010001;28;20314;-79
2023/06/11 12:33:36;;;;;;;5.43;3.22;;;;;;;;;;5010660;28;20230;-82
2023/06/11 12:36:03;;;;;;;4.75;3.05;;;;;;;;;;5005473;28;20625;-81
2023/06/11 12:38:32;;;;;;;4.72;3.25;;;;;;;;;;5006144;28;20681;-81
2023/06/11 12:40:59;;;;;;;6.03;3.40;;;;;;;;;;5002114;28;20246;-82
2023/06/11 12:43:26;;;;;;;3.75;3.08;;;;;;;;;;5012137;28;20601;-81
2023/06/11 12:45:53;;;;;;;4.75;3.15;;;;;;;;;;5010126;28;20235;-81
2023/06/11 12:48:20;;;;;;;7.75;3.13;;;;;;;;;;5003023;28;20234;-81
2023/06/11 12:50:47;;;;;;;3.60;3.25;;;;;;;;;;5010974;28;20245;-81
2023/06/11 12:53:14;;;;;;;3.50;3.20;;;;;;;;;;5004610;28;20202;-81
2023/06/11 12:55:42;;;;;;;4.78;3.50;;;;;;;;;;5001944;28;20239;-82
2023/06/11 12:58:10;;;;;;;4.88;3.25;;;;;;;;;;4995630;28;20210;-81
2023/06/11 13:00:37;;;;;;;3.25;2.95;;;;;;;;;;5009030;28;20239;-82
2023/06/11 13:03:04;;;;;;;3.97;3.22;;;;;;;;;;4997177;28;20210;-81
2023/06/11 13:05:31;;;;;;;4.20;3.30;;;;;;;;;;5006850;28;20234;-81
2023/06/11 13:07:58;;;;;;;5.40;3.00;;;;;;;;;;5004844;28;20206;-81
2023/06/11 13:10:25;;;;;;;3.85;3.30;;;;;;;;;;5007226;28;20227;-81
2023/06/11 13:12:56;;;;;;;3.97;3.28;;;;;;;;;;5007694;28;20237;-82
2023/06/11 13:15:23;;;;;;;3.60;3.30;;;;;;;;;;5009951;28;20265;-82
2023/06/11 13:17:50;;;;;;;3.50;3.20;;;;;;;;;;5005387;28;20211;-82
2023/06/11 13:20:18;;;;;;;5.00;3.25;;;;;;;;;;5013210;28;20234;-82
2023/06/11 13:22:45;;;;;;;5.03;3.05;;;;;;;;;;5013372;28;20242;-82
2023/06/11 13:25:12;;;;;;;4.25;3.28;;;;;;;;;;5012941;28;20269;-82
2023/06/11 13:27:39;;;;;;;3.47;3.17;;;;;;;;;;5006216;28;20211;-83
2023/06/11 13:30:09;;;;;;;3.50;3.20;;;;;;;;;;5004568;28;20226;-82
2023/06/11 13:32:36;;;;;;;3.85;2.95;;;;;;;;;;5013508;28;20203;-82
2023/06/11 13:35:03;;;;;;;3.45;3.08;;;;;;;;;;5012645;28;20263;-82
2023/06/11 13:37:30;;;;;;;5.43;2.92;;;;;;;;;;5013043;28;20696;-84
2023/06/11 13:39:58;;;;;;;4.40;3.60;;;;;;;;;;5000081;28;20238;-82
2023/06/11 13:42:25;;;;;;;15.43;4.75;;;;;;;;;;5004788;28;20638;-81
2023/06/11 13:44:52;;;;;;;3.33;3.00;;;;;;;;;;5001863;28;20697;-81
2023/06/11 13:47:20;;;;;;;3.85;3.45;;;;;;;;;;5005769;28;20207;-82
2023/06/11 13:49:47;;;;;;;7.68;3.30;;;;;;;;;;5012239;28;20235;-83
2023/06/11 13:52:14;;;;;;;4.72;3.40;;;;;;;;;;5003005;28;20214;-82
2023/06/11 13:54:42;;;;;;;4.10;3.30;;;;;;;;;;5002071;28;20245;-82
2023/06/11 13:57:11;;;;;;;3.70;3.33;;;;;;;;;;5005317;28;20522;-80
2023/06/11 13:59:38;;;;;;;3.83;3.30;;;;;;;;;;5002645;28;20769;-80
2023/06/11 14:02:05;;;;;;;4.35;3.28;;;;;;;;;;5003342;28;20220;-80
2023/06/11 14:04:33;;;;;;;3.33;3.00;;;;;;;;;;5006882;28;20717;-80
2023/06/11 14:07:03;;;;;;;3.67;3.38;;;;;;;;;;5004574;28;20200;-80
2023/06/11 14:09:30;;;;;;;3.53;3.22;;;;;;;;;;5003004;28;20282;-80
2023/06/11 14:11:58;;;;;;;5.72;3.60;;;;;;;;;;5008760;28;20205;-81
2023/06/11 14:14:27;;;;;;;11.65;4.68;;;;;;;;;;4998814;28;20232;-80
2023/06/11 14:16:54;;;;;;;4.40;4.00;;;;;;;;;;5000245;28;20215;-80
2023/06/11 14:19:21;;;;;;;4.93;4.10;;;;;;;;;;5004323;28;20746;-80
2023/06/11 14:21:53;;;;;;;4.00;3.60;;;;;;;;;;5005078;28;20218;-81
2023/06/11 14:24:20;;;;;;;5.22;3.78;;;;;;;;;;5002033;28;20239;-80
2023/06/11 14:26:47;;;;;;;4.57;4.18;;;;;;;;;;5005645;28;20211;-81
2023/06/11 14:29:14;;;;;;;4.05;3.60;;;;;;;;;;5004556;28;20235;-80
2023/06/11 14:31:41;;;;;;;4.78;3.40;;;;;;;;;;5004741;28;20211;-80
2023/06/11 14:34:08;;;;;;;5.40;3.72;;;;;;;;;;5001796;28;20244;-80
2023/06/11 14:36:36;;;;;;;5.32;4.82;;;;;;;;;;5006881;28;20208;-80
2023/06/11 14:39:04;;;;;;;5.43;3.53;;;;;;;;;;5008696;28;20270;-80
2023/06/11 14:41:31;;;;;;;4.60;2.97;;;;;;;;;;5011404;28;20846;-79
2023/06/11 14:43:59;;;;;;;3.60;3.30;;;;;;;;;;5008160;28;20673;-79
2023/06/11 14:46:26;;;;;;;3.92;3.33;;;;;;;;;;5005209;28;20222;-79